createdAt,value
2022-09-01T00:04:02.069Z,4184.8
2022-09-01T00:09:36.915Z,4182.8
2022-09-01T00:15:11.669Z,4184.5
2022-09-01T00:20:46.269Z,4181.3
2022-09-01T00:26:21.079Z,4180.6
2022-09-01T00:31:55.831Z,4182
2022-09-01T00:37:30.675Z,4179.3
2022-09-01T00:43:05.695Z,4181.3
2022-09-01T00:48:43.976Z,4181.6
2022-09-01T00:54:18.658Z,4180.5
2022-09-01T00:59:54.855Z,4181
2022-09-01T01:05:29.544Z,4178
2022-09-01T01:11:04.694Z,4179.1
2022-09-01T01:16:40.364Z,4179.1
2022-09-01T01:22:16.117Z,4178.6
2022-09-01T01:27:51.253Z,4176.6
2022-09-01T01:33:26.753Z,4176.9
2022-09-01T01:39:01.575Z,4176.1
2022-09-01T01:44:37.393Z,4178.1
2022-09-01T01:50:12.381Z,4174.9
2022-09-01T01:55:48.665Z,4177.1
2022-09-01T02:01:25.529Z,4176.1
2022-09-01T02:07:00.758Z,4175.8
2022-09-01T02:12:35.554Z,4178.6
2022-09-01T02:18:11.716Z,4174.6
2022-09-01T02:23:46.483Z,4175.1
2022-09-01T02:29:44.661Z,4172.9
2022-09-01T02:35:18.646Z,4175.8
2022-09-01T02:40:53.446Z,4175.6
2022-09-01T02:46:29.305Z,4174.6
2022-09-01T02:52:04.291Z,4173.9
2022-09-01T02:57:38.982Z,4171.8
2022-09-01T03:03:15.743Z,4174.1
2022-09-01T03:08:50.487Z,4173.8
2022-09-01T03:14:25.281Z,4174.1
2022-09-01T03:20:00.122Z,4174.3
2022-09-01T03:25:35.026Z,4172.6
2022-09-01T03:31:33.375Z,4170.1
2022-09-01T03:37:07.252Z,4173.8
2022-09-01T03:42:41.962Z,4173.4
2022-09-01T03:48:17.373Z,4172.6
2022-09-01T03:53:52.472Z,4171.4
2022-09-01T03:59:28.003Z,4173.3
2022-09-01T04:05:09.354Z,4170.4
2022-09-01T04:10:45.226Z,4171.3
2022-09-01T04:16:21.942Z,4168.7
2022-09-01T04:21:56.777Z,4168.2
2022-09-01T04:27:31.639Z,4170.4
2022-09-01T04:33:06.599Z,4168.9
2022-09-01T04:38:41.646Z,4169.9
2022-09-01T04:44:16.453Z,4168.6
2022-09-01T04:49:52.217Z,4168.4
2022-09-01T04:55:27.039Z,4167.9
2022-09-01T05:01:03.303Z,4167.6
2022-09-01T05:06:38.079Z,4166.4
2022-09-01T05:12:17.115Z,4165.9
2022-09-01T05:17:52.046Z,4167.9
2022-09-01T05:23:27.083Z,4167.2
2022-09-01T05:29:23.540Z,4163
2022-09-01T05:34:58.423Z,4166.2
2022-09-01T05:40:34.170Z,4165.7
2022-09-01T05:46:09.259Z,4166.4
2022-09-01T05:51:52.278Z,4166.9
2022-09-01T05:57:36.260Z,4164.7
2022-09-01T06:03:13.719Z,4165.7
2022-09-01T06:08:49.180Z,4168.2
2022-09-01T06:14:25.026Z,4168.9
2022-09-01T06:19:59.836Z,4169.7
2022-09-01T06:25:34.638Z,4168.4
2022-09-01T06:31:32.244Z,4172.3
2022-09-01T06:37:05.025Z,4175.9
2022-09-01T06:42:40.328Z,4178.3
2022-09-01T06:48:15.244Z,4182.5
2022-09-01T06:53:51.374Z,4188.3
2022-09-01T06:59:36.366Z,4186.2
2022-09-01T07:43:07.305Z,4192.7
2022-09-01T07:51:34.075Z,4207.3
2022-09-01T07:57:09.804Z,4200.4
2022-09-01T08:02:45.430Z,4203.1
2022-09-01T08:08:32.123Z,4207.1
2022-09-01T08:14:07.346Z,4212
2022-09-01T08:19:44.914Z,4211
2022-09-01T08:25:26.246Z,4198.9
2022-09-01T08:31:24.050Z,4193.2
2022-09-01T08:36:56.796Z,4202.7
2022-09-01T08:42:34.099Z,4208.6
2022-09-01T08:49:30.968Z,4205.8
2022-09-01T08:55:06.807Z,4220
2022-09-01T09:00:41.953Z,4221.7
2022-09-01T09:06:16.771Z,4225.4
2022-09-01T09:11:52.461Z,4221.5
2022-09-01T09:17:27.388Z,4222.8
2022-09-01T09:23:04.840Z,4216.6
2022-09-01T09:29:01.507Z,4216.8
2022-09-01T09:34:34.206Z,4222.5
2022-09-01T09:40:11.494Z,4224.2
2022-09-01T09:45:49.353Z,4223.7
2022-09-01T09:51:24.167Z,4222.3
2022-09-01T09:56:59.409Z,4230.2
2022-09-01T10:02:35.507Z,4218.8
2022-09-01T10:08:10.973Z,4215.6
2022-09-01T10:13:46.881Z,4217.3
2022-09-01T10:19:22.274Z,4227.4
2022-09-01T10:24:57.398Z,4216.3
2022-09-01T10:30:34.257Z,4226.4
2022-09-01T10:36:10.586Z,4227.5
2022-09-01T10:41:45.745Z,4215.8
2022-09-01T10:47:22.638Z,4227
2022-09-01T10:52:58.646Z,4225
2022-09-01T10:59:57.374Z,4227.7
2022-09-01T11:05:34.418Z,4218.3
2022-09-01T11:11:10.415Z,4226.4
2022-09-01T11:16:51.477Z,4213.5
2022-09-01T11:22:28.417Z,4231.2
2022-09-01T11:28:26.573Z,4225.9
2022-09-01T11:34:03.312Z,4217
2022-09-01T11:39:38.391Z,4217.1
2022-09-01T11:45:22.807Z,4214.5
2022-09-01T11:50:57.951Z,4219.3
2022-09-01T11:56:33.092Z,4230.2
2022-09-01T12:02:10.461Z,4232.2
2022-09-01T12:07:45.455Z,4226.5
2022-09-01T12:13:22.575Z,4216.1
2022-09-01T12:18:57.457Z,4227.4
2022-09-01T12:24:32.290Z,4227.2
2022-09-01T12:30:30.581Z,4228.2
2022-09-01T12:36:03.618Z,4227.4
2022-09-01T12:41:40.625Z,4217.8
2022-09-01T12:47:15.853Z,4224.2
2022-09-01T12:52:53.552Z,4221.7
2022-09-01T12:58:28.520Z,4217
2022-09-01T13:04:03.412Z,4215.1
2022-09-01T13:09:38.261Z,4220.7
2022-09-01T13:15:16.492Z,4223.3
2022-09-01T13:20:51.764Z,4226.9
2022-09-01T13:26:26.631Z,4222.2
2022-09-01T13:32:32.534Z,4217.7
2022-09-01T13:38:07.840Z,4217.1
2022-09-01T13:50:23.986Z,4222.7
2022-09-01T13:56:04.503Z,4229.7
2022-09-01T14:01:39.547Z,4218.3
2022-09-01T14:07:14.615Z,4219
2022-09-01T14:12:49.863Z,4214.5
2022-09-01T14:18:25.699Z,4228
2022-09-01T14:24:01.520Z,4222.8
2022-09-01T14:35:11.766Z,4215
2022-09-01T14:40:47.599Z,4227.2
2022-09-01T14:46:23.602Z,4228.5
2022-09-01T14:52:14.223Z,4228.5
2022-09-01T14:57:49.422Z,4218.2
2022-09-01T15:03:27.543Z,4225.9
2022-09-01T15:09:02.979Z,4224.4
2022-09-01T15:14:38.002Z,4226.7
2022-09-01T15:20:12.984Z,4218.7
2022-09-01T15:25:47.653Z,4221.8
2022-09-01T15:31:34.741Z,4223.2
2022-09-01T15:37:09.640Z,4215
2022-09-01T15:42:44.373Z,4223
2022-09-01T15:48:19.585Z,4223.2
2022-09-01T15:53:56.824Z,4223.3
2022-09-01T15:59:33.766Z,4218.7
2022-09-01T16:05:09.974Z,4220.5
2022-09-01T16:10:56.995Z,4222.7
2022-09-01T16:16:47.539Z,4230.2
2022-09-01T16:22:23.117Z,4217.1
2022-09-01T16:28:20.194Z,4220.5
2022-09-01T16:33:53.254Z,4226.2
2022-09-01T16:39:28.734Z,4217.5
2022-09-01T16:45:03.578Z,4217.8
2022-09-01T16:50:38.710Z,4211
2022-09-01T16:56:13.424Z,4205.1
2022-09-01T17:01:49.753Z,4208.9
2022-09-01T17:07:30.611Z,4207.8
2022-09-01T17:13:05.621Z,4210.1
2022-09-01T17:18:40.212Z,4213.1
2022-09-01T17:24:15.227Z,4209.9
2022-09-01T17:30:11.757Z,4206.9
2022-09-01T17:35:44.389Z,4204.9
2022-09-01T17:41:20.342Z,4202.7
2022-09-01T17:46:55.976Z,4206.6
2022-09-01T17:52:30.790Z,4204.9
2022-09-01T18:05:08.192Z,4202.1
2022-09-01T18:10:41.041Z,4202.1
2022-09-01T18:16:16.984Z,4201.4
2022-09-01T18:21:52.290Z,4201.6
2022-09-01T18:27:34.965Z,4200.4
2022-09-01T18:33:09.657Z,4200.6
2022-09-01T18:38:47.306Z,4200.6
2022-09-01T18:44:27.168Z,4199.9
2022-09-01T18:50:02.192Z,4199.2
2022-09-01T18:55:37.251Z,4200.6
2022-09-01T19:01:15.546Z,4198.2
2022-09-01T19:06:51.801Z,4197.7
2022-09-01T19:12:26.536Z,4198.4
2022-09-01T19:18:02.606Z,4196.7
2022-09-01T19:23:38.509Z,4198.4
2022-09-01T19:29:13.375Z,4197.6
2022-09-01T19:34:48.166Z,4197.4
2022-09-01T19:40:28.141Z,4196.2
2022-09-01T19:46:05.670Z,4196.4
2022-09-01T19:51:40.646Z,4197.9
2022-09-01T19:57:16.368Z,4197.2
2022-09-01T20:03:15.274Z,4194.5
2022-09-01T20:08:48.341Z,4195.7
2022-09-01T20:14:23.106Z,4196
2022-09-01T20:19:58.109Z,4196.4
2022-09-01T20:25:34.593Z,4197.5
2022-09-01T20:31:10.369Z,4196.4
2022-09-01T20:36:45.257Z,4195
2022-09-01T20:42:19.974Z,4192.7
2022-09-01T20:47:58.760Z,4196
2022-09-01T20:53:33.739Z,4194.5
2022-09-01T20:59:08.627Z,4193.2
2022-09-01T21:05:05.264Z,4190
2022-09-01T21:10:37.979Z,4190.9
2022-09-01T21:16:13.497Z,4191
2022-09-01T21:21:49.504Z,4190.5
2022-09-01T21:27:24.495Z,4190.9
2022-09-01T21:32:59.326Z,4192
2022-09-01T21:38:34.130Z,4191.2
2022-09-01T21:44:09.103Z,4190.7
2022-09-01T21:49:43.979Z,4191
2022-09-01T21:55:24.081Z,4189.8
2022-09-01T22:00:59.982Z,4189.5
2022-09-01T22:06:35.003Z,4188.3
2022-09-01T22:12:10.518Z,4189.3
2022-09-01T22:17:45.342Z,4188.5
2022-09-01T22:23:21.341Z,4187.3
2022-09-01T22:28:56.557Z,4189.3
2022-09-01T22:34:31.323Z,4185.7
2022-09-01T22:40:07.407Z,4186
2022-09-01T22:45:43.106Z,4186.7
2022-09-01T22:51:19.465Z,4185.8
2022-09-01T22:57:00.371Z,4187
2022-09-01T23:02:56.848Z,4182.3
2022-09-01T23:08:29.548Z,4184.8
2022-09-01T23:14:04.720Z,4184.5
2022-09-01T23:19:40.628Z,4187.7
2022-09-01T23:25:15.425Z,4185.8
2022-09-01T23:30:50.613Z,4183.3
2022-09-01T23:36:26.241Z,4184
2022-09-01T23:42:01.009Z,4182.1
2022-09-01T23:47:36.011Z,4182.5
2022-09-01T23:53:11.809Z,4183.1
2022-09-01T23:58:46.772Z,4185.7
